Terminal Aerodrome Forecast
Issued by NWS Wilmington, NC

Home | Current Version | Previous Version | Text Only | Print | Product List | Glossary On
Versions: 1 2 3 4 5 6 7 8 9 10 11 12 13
667
FTUS42 KILM 262320
TAFLBT
TAF
KLBT 262320Z 2700/2724 VRB05KT P6SM SCT050
     FM270100 00000KT P6SM FEW060
     FM270800 00000KT 5SM BR FEW060
      TEMPO 2708/2711 3SM BR
     FM271200 03001KT 4SM BR SKC
     FM271300 05004KT P6SM SKC=

USA.gov is the U.S. government's official web portal to all federal, state and local government web resources and services.